Time;durP1;ratioP1;P1;durP2;ratioP2;P2;SDS_P1;SDS_P2;PMS_P1;PMS_P2;Temp;Humidity;BMP_temperature;BMP_pressure;BME280_temperature;BME280_humidity;BME280_pressure;Samples;Min_cycle;Max_cycle;Signal;HPM_P1;HPM_P2
2024/01/05 00:01:37;;;;;;;10.07;3.38;;;;;;;6.96;100.00;99867.16;5052055;28;20035;-75
2024/01/05 00:04:02;;;;;;;9.43;2.75;;;;;;;6.99;100.00;99858.78;5051807;28;20036;-75
2024/01/05 00:06:28;;;;;;;8.60;3.03;;;;;;;7.01;100.00;99849.63;5051835;28;20476;-75
2024/01/05 00:08:53;;;;;;;8.35;4.20;;;;;;;7.01;100.00;99846.97;5051859;28;20089;-75
2024/01/05 00:11:19;;;;;;;9.15;3.35;;;;;;;7.01;100.00;99857.59;5051682;28;20665;-75
2024/01/05 00:13:45;;;;;;;12.40;3.00;;;;;;;7.01;100.00;99840.88;5051850;28;20029;-75
2024/01/05 00:16:18;;;;;;;10.10;3.97;;;;;;;6.99;100.00;99846.34;5051749;28;20063;-75
2024/01/05 00:18:44;;;;;;;7.60;3.30;;;;;;;6.99;100.00;99841.06;5051649;28;20029;-76
2024/01/05 00:21:19;;;;;;;7.03;3.28;;;;;;;6.95;100.00;99825.75;5051565;28;20036;-75
2024/01/05 00:23:44;;;;;;;11.52;2.47;;;;;;;6.96;100.00;99825.53;5051550;28;20029;-75
2024/01/05 00:26:10;;;;;;;7.32;2.72;;;;;;;6.93;100.00;99825.94;5051194;28;20068;-75
2024/01/05 00:28:35;;;;;;;11.60;2.78;;;;;;;6.91;100.00;99821.84;5050387;28;20068;-75
2024/01/05 00:31:00;;;;;;;15.00;2.83;;;;;;;6.93;100.00;99820.66;5051463;28;20029;-75
2024/01/05 00:33:26;;;;;;;11.45;3.97;;;;;;;6.97;100.00;99829.03;5051309;28;20136;-76
2024/01/05 00:35:51;;;;;;;8.30;2.55;;;;;;;6.99;100.00;99819.84;5051312;28;20071;-75
2024/01/05 00:38:16;;;;;;;15.23;3.40;;;;;;;7.07;100.00;99812.75;5051290;28;20060;-75
2024/01/05 00:40:42;;;;;;;12.20;3.65;;;;;;;7.10;100.00;99804.38;5049858;28;20064;-75
2024/01/05 00:43:07;;;;;;;10.23;2.72;;;;;;;7.14;100.00;99806.44;5049718;28;20087;-75
2024/01/05 00:45:32;;;;;;;16.55;5.05;;;;;;;7.17;100.00;99805.22;5049602;28;20065;-75
2024/01/05 00:47:58;;;;;;;13.90;4.25;;;;;;;7.21;100.00;99801.97;5051140;28;20050;-75
2024/01/05 00:50:23;;;;;;;13.13;3.70;;;;;;;7.24;100.00;99792.81;5050959;28;20087;-75
2024/01/05 00:52:48;;;;;;;11.93;3.90;;;;;;;7.27;100.00;99795.06;5051106;28;20032;-75
2024/01/05 00:55:14;;;;;;;9.23;2.70;;;;;;;7.32;100.00;99786.50;5051077;28;20110;-75
2024/01/05 00:57:43;;;;;;;6.78;2.78;;;;;;;7.35;100.00;99788.75;5051011;28;20025;-75
2024/01/05 01:00:09;;;;;;;10.70;3.13;;;;;;;7.37;100.00;99790.19;5050804;28;20061;-75
2024/01/05 01:02:37;;;;;;;13.40;3.08;;;;;;;7.38;100.00;99786.50;5050821;28;20039;-75
2024/01/05 01:05:03;;;;;;;14.63;3.45;;;;;;;7.43;100.00;99789.34;5050852;28;20123;-75
2024/01/05 01:07:29;;;;;;;9.85;4.15;;;;;;;7.44;100.00;99782.22;5049426;28;20388;-75
2024/01/05 01:09:55;;;;;;;14.90;2.55;;;;;;;7.47;100.00;99782.63;5050338;28;20033;-76
2024/01/05 01:12:20;;;;;;;12.57;3.72;;;;;;;7.50;100.00;99785.91;5050710;28;20033;-75
2024/01/05 01:14:45;;;;;;;9.52;2.92;;;;;;;7.50;100.00;99775.31;5050616;28;20028;-75
2024/01/05 01:17:11;;;;;;;11.85;2.80;;;;;;;7.52;100.00;99774.09;5050566;28;20059;-75
2024/01/05 01:19:36;;;;;;;8.82;2.25;;;;;;;7.57;100.00;99776.09;5049200;28;20082;-75
2024/01/05 01:22:02;;;;;;;13.00;2.80;;;;;;;7.55;100.00;99757.75;5050463;28;20032;-75
2024/01/05 01:24:27;;;;;;;10.10;3.03;;;;;;;7.61;100.00;99769.38;5049151;28;20108;-76
2024/01/05 01:26:52;;;;;;;8.52;2.88;;;;;;;7.60;100.00;99763.25;5048775;28;20480;-75
2024/01/05 01:29:18;;;;;;;7.20;2.42;;;;;;;7.58;100.00;99767.13;5048916;28;20041;-75
2024/01/05 01:31:43;;;;;;;9.10;2.97;;;;;;;7.63;100.00;99764.69;5050256;28;20033;-76
2024/01/05 01:34:09;;;;;;;9.20;3.42;;;;;;;7.65;100.00;99754.66;5050277;28;20127;-76
2024/01/05 01:36:34;;;;;;;12.13;3.05;;;;;;;7.66;100.00;99762.44;5050072;28;20060;-75
2024/01/05 01:39:00;;;;;;;9.45;2.40;;;;;;;7.68;100.00;99762.25;5049834;28;20033;-75
2024/01/05 01:41:25;;;;;;;14.73;2.88;;;;;;;7.68;100.00;99757.75;5048786;28;20033;-75
2024/01/05 01:43:50;;;;;;;12.18;2.70;;;;;;;7.69;100.00;99756.72;5050006;28;20080;-75
2024/01/05 01:46:16;;;;;;;8.82;2.42;;;;;;;7.72;100.00;99752.84;5049853;28;20060;-76
2024/01/05 01:48:44;;;;;;;6.70;2.25;;;;;;;7.73;100.00;99751.00;5050059;28;20028;-75
2024/01/05 01:51:10;;;;;;;7.57;2.33;;;;;;;7.71;100.00;99748.56;5050075;28;20028;-75
2024/01/05 01:53:36;;;;;;;12.52;2.15;;;;;;;7.69;100.00;99746.09;5049849;28;20090;-75
2024/01/05 01:56:02;;;;;;;8.52;2.75;;;;;;;7.71;100.00;99742.44;5049706;28;20496;-75
2024/01/05 01:58:28;;;;;;;10.10;2.13;;;;;;;7.67;100.00;99724.25;5049818;28;20032;-76
2024/01/05 02:00:53;;;;;;;8.63;2.60;;;;;;;7.71;100.00;99731.81;5049500;28;20039;-75
2024/01/05 02:03:19;;;;;;;12.25;3.20;;;;;;;7.70;100.00;99728.34;5049729;28;20025;-75
2024/01/05 02:05:46;;;;;;;5.97;2.08;;;;;;;7.65;100.00;99720.16;5048412;28;20090;-75
2024/01/05 02:08:11;;;;;;;9.05;2.22;;;;;;;7.63;100.00;99709.78;5049721;28;20036;-75
2024/01/05 02:10:38;;;;;;;9.30;2.90;;;;;;;7.67;100.00;99718.13;5049501;28;20044;-75
2024/01/05 02:13:03;;;;;;;6.65;2.13;;;;;;;7.64;100.00;99708.75;5049446;28;20039;-75
2024/01/05 02:15:29;;;;;;;16.65;3.00;;;;;;;7.64;100.00;99703.44;5049391;28;20112;-75
2024/01/05 02:17:54;;;;;;;8.13;2.25;;;;;;;7.63;100.00;99695.69;5049462;28;20025;-76
2024/01/05 02:20:20;;;;;;;10.73;2.35;;;;;;;7.59;100.00;99695.28;5049319;28;20074;-76
2024/01/05 02:22:50;;;;;;;9.73;3.63;;;;;;;7.63;100.00;99696.50;5049478;28;20036;-76
2024/01/05 02:25:15;;;;;;;6.93;2.00;;;;;;;7.64;100.00;99692.00;5049334;28;20087;-75
2024/01/05 02:27:41;;;;;;;7.25;2.08;;;;;;;7.63;100.00;99685.09;5049201;28;20036;-75
2024/01/05 02:30:06;;;;;;;7.22;2.40;;;;;;;7.64;100.00;99681.41;5049282;28;20033;-75
2024/01/05 02:32:32;;;;;;;9.00;3.25;;;;;;;7.59;100.00;99671.41;5049072;28;20032;-75
2024/01/05 02:34:57;;;;;;;10.07;2.42;;;;;;;7.57;100.00;99668.16;5049045;28;20025;-75
2024/01/05 02:37:22;;;;;;;8.80;2.65;;;;;;;7.55;100.00;99664.88;5049116;28;20051;-75
2024/01/05 02:39:48;;;;;;;15.93;4.22;;;;;;;7.52;100.00;99661.81;5047656;28;21050;-75
2024/01/05 02:42:13;;;;;;;4.25;2.78;;;;;;;7.49;100.00;99664.88;5049095;28;20455;-75
2024/01/05 02:44:38;;;;;;;8.93;1.95;;;;;;;7.47;100.00;99657.94;5048928;28;20045;-75
2024/01/05 02:47:04;;;;;;;8.95;3.15;;;;;;;7.46;100.00;99653.66;5048899;28;20118;-75
2024/01/05 02:49:29;;;;;;;8.70;2.38;;;;;;;7.43;100.00;99648.75;5048741;28;20039;-75
2024/01/05 02:51:54;;;;;;;6.30;1.75;;;;;;;7.40;100.00;99643.88;5048588;28;20036;-75
2024/01/05 02:54:20;;;;;;;7.97;2.60;;;;;;;7.39;100.00;99646.75;5047621;28;20033;-75
2024/01/05 02:56:45;;;;;;;5.45;2.22;;;;;;;7.39;100.00;99642.25;5048789;28;20032;-75
2024/01/05 02:59:10;;;;;;;6.40;1.80;;;;;;;7.39;100.00;99636.94;5048878;28;20123;-75
2024/01/05 03:01:36;;;;;;;5.90;2.22;;;;;;;7.38;100.00;99630.00;5049002;28;20024;-76
2024/01/05 03:04:02;;;;;;;7.60;2.47;;;;;;;7.37;100.00;99630.22;5048897;28;20525;-75
2024/01/05 03:06:27;;;;;;;6.30;1.70;;;;;;;7.37;100.00;99633.69;5049282;28;20025;-75
2024/01/05 03:08:53;;;;;;;9.00;2.63;;;;;;;7.34;100.00;99617.38;5048945;28;20037;-75
2024/01/05 03:11:18;;;;;;;11.43;2.65;;;;;;;7.34;100.00;99606.75;5048674;28;20106;-75
2024/01/05 03:13:43;;;;;;;7.65;2.05;;;;;;;7.42;100.00;99615.31;5048770;28;20135;-75
2024/01/05 03:16:09;;;;;;;9.05;2.58;;;;;;;7.40;100.00;99614.69;5048624;28;20033;-76
2024/01/05 03:18:34;;;;;;;6.15;2.20;;;;;;;7.44;100.00;99612.44;5048765;28;20033;-75
2024/01/05 03:21:00;;;;;;;5.03;2.47;;;;;;;7.41;100.00;99607.53;5048607;28;20021;-76
2024/01/05 03:23:25;;;;;;;5.25;2.00;;;;;;;7.40;100.00;99598.78;5048647;28;20021;-75
2024/01/05 03:25:51;;;;;;;2.80;1.80;;;;;;;7.40;100.00;99598.78;5048628;28;20041;-75
2024/01/05 03:28:17;;;;;;;6.72;2.30;;;;;;;7.42;100.00;99602.03;5048629;28;20040;-75
2024/01/05 03:30:42;;;;;;;9.20;2.25;;;;;;;7.35;100.00;99581.88;5048604;28;20400;-75
2024/01/05 03:33:09;;;;;;;10.27;2.50;;;;;;;7.41;100.00;99589.81;5048575;28;20028;-75
2024/01/05 03:35:38;;;;;;;6.85;1.63;;;;;;;7.40;100.00;99590.81;5048624;28;20560;-75
2024/01/05 03:38:03;;;;;;;5.25;2.10;;;;;;;7.40;100.00;99587.38;5048563;28;20505;-75
2024/01/05 03:40:28;;;;;;;7.43;2.35;;;;;;;7.34;100.00;99581.06;5048258;28;20074;-75
2024/01/05 03:42:54;;;;;;;7.28;2.13;;;;;;;7.37;100.00;99577.97;5048431;28;20071;-75
2024/01/05 03:45:19;;;;;;;10.18;3.25;;;;;;;7.39;100.00;99581.25;5046990;28;20064;-75
2024/01/05 03:47:45;;;;;;;7.68;3.78;;;;;;;7.37;100.00;99572.69;5048477;28;20041;-75
2024/01/05 03:50:10;;;;;;;5.60;2.22;;;;;;;7.39;100.00;99567.97;5046983;28;20083;-76
2024/01/05 03:52:36;;;;;;;7.82;1.60;;;;;;;7.41;100.00;99563.28;5048478;28;20040;-75
2024/01/05 03:55:02;;;;;;;9.60;3.28;;;;;;;7.42;100.00;99561.44;5048307;28;20136;-75
2024/01/05 03:57:27;;;;;;;7.00;1.83;;;;;;;7.40;100.00;99555.53;5048373;28;20035;-75
2024/01/05 03:59:53;;;;;;;8.57;2.15;;;;;;;7.39;100.00;99552.06;5048278;28;20037;-75
2024/01/05 04:02:18;;;;;;;6.30;1.73;;;;;;;7.38;100.00;99545.13;5050486;28;20087;-75
2024/01/05 04:04:43;;;;;;;11.40;2.78;;;;;;;7.37;100.00;99548.81;5052015;28;20108;-75
2024/01/05 04:07:09;;;;;;;5.65;1.75;;;;;;;7.37;100.00;99546.16;5051920;28;20100;-75
2024/01/05 04:09:34;;;;;;;7.85;1.88;;;;;;;7.36;100.00;99541.88;5051843;28;20033;-75
2024/01/05 04:12:00;;;;;;;3.42;1.13;;;;;;;7.25;100.00;99527.41;5051671;28;20040;-75
2024/01/05 04:14:25;;;;;;;5.47;1.83;;;;;;;7.32;100.00;99545.16;5051936;28;20552;-75
2024/01/05 04:16:51;;;;;;;3.03;1.75;;;;;;;7.29;100.00;99534.97;5051607;28;20029;-75
2024/01/05 04:19:16;;;;;;;4.18;1.65;;;;;;;7.29;100.00;99529.66;5051602;28;20028;-75
2024/01/05 04:21:42;;;;;;;6.25;2.58;;;;;;;7.26;100.00;99522.94;5051664;28;20040;-75
2024/01/05 04:24:08;;;;;;;5.63;1.58;;;;;;;7.26;100.00;99520.28;5051668;28;20040;-75
2024/01/05 04:26:33;;;;;;;5.05;1.90;;;;;;;7.18;100.00;99513.38;5051566;28;20033;-75
2024/01/05 04:28:59;;;;;;;7.28;2.15;;;;;;;7.14;100.00;99512.13;5051612;28;21046;-75
2024/01/05 04:31:24;;;;;;;8.80;2.70;;;;;;;7.13;100.00;99505.22;5051520;28;20567;-75
2024/01/05 04:33:49;;;;;;;6.25;2.40;;;;;;;7.14;100.00;99501.53;5050068;28;20959;-75
2024/01/05 04:36:15;;;;;;;6.43;2.10;;;;;;;7.16;100.00;99496.84;5051501;28;20123;-75
2024/01/05 04:38:42;;;;;;;6.28;1.60;;;;;;;7.14;100.00;99498.88;5051256;28;20135;-75
2024/01/05 04:41:07;;;;;;;5.65;1.75;;;;;;;7.14;100.00;99496.22;5051078;28;20075;-75
2024/01/05 04:43:32;;;;;;;7.93;2.13;;;;;;;7.10;100.00;99483.59;5049720;28;20407;-75
2024/01/05 04:46:00;;;;;;;10.35;2.25;;;;;;;7.12;100.00;99492.97;5051058;28;20068;-75
2024/01/05 04:48:25;;;;;;;7.13;1.70;;;;;;;7.10;100.00;99479.13;5049723;28;20025;-75
2024/01/05 04:50:51;;;;;;;5.65;1.65;;;;;;;7.06;100.00;99477.88;5051049;28;20048;-75
2024/01/05 04:53:16;;;;;;;4.53;1.50;;;;;;;7.05;100.00;99475.44;5051023;28;20388;-75
2024/01/05 04:55:41;;;;;;;7.20;1.92;;;;;;;6.97;100.00;99472.00;5050972;28;20514;-75
2024/01/05 04:58:07;;;;;;;8.40;1.90;;;;;;;6.96;100.00;99469.56;5033164;28;20080;-75
2024/01/05 05:00:32;;;;;;;9.85;2.75;;;;;;;6.98;100.00;99464.88;5050845;28;20065;-75
2024/01/05 05:02:57;;;;;;;8.15;1.92;;;;;;;6.99;100.00;99467.28;5050849;28;20033;-75
2024/01/05 05:05:23;;;;;;;7.07;3.25;;;;;;;7.00;100.00;99454.88;5050716;28;20051;-75
2024/01/05 05:07:48;;;;;;;5.32;1.60;;;;;;;7.04;100.00;99456.06;5049573;28;20037;-69
2024/01/05 05:10:14;;;;;;;6.45;1.92;;;;;;;7.05;100.00;99452.41;5049169;28;20037;-69
2024/01/05 05:12:39;;;;;;;4.43;1.75;;;;;;;7.07;100.00;99449.53;5050218;28;20029;-69
2024/01/05 05:15:05;;;;;;;7.22;1.80;;;;;;;7.08;100.00;99459.94;5050555;28;20040;-69
2024/01/05 05:17:30;;;;;;;5.30;1.65;;;;;;;7.08;100.00;99444.03;5050655;28;20025;-69
2024/01/05 05:19:56;;;;;;;5.80;1.63;;;;;;;7.08;100.00;99441.38;5050379;28;20035;-69
2024/01/05 05:22:22;;;;;;;12.90;3.47;;;;;;;7.08;100.00;99440.59;5050334;28;20107;-69
2024/01/05 05:24:50;;;;;;;4.00;1.63;;;;;;;7.09;100.00;99440.34;5050042;28;20491;-69
2024/01/05 05:27:16;;;;;;;4.78;1.58;;;;;;;7.10;100.00;99438.50;5050411;28;20126;-69
2024/01/05 05:29:41;;;;;;;5.32;1.58;;;;;;;7.10;100.00;99436.69;5050392;28;20575;-69
2024/01/05 05:32:06;;;;;;;5.50;1.60;;;;;;;7.13;100.00;99441.59;5050306;28;20041;-69
2024/01/05 05:34:32;;;;;;;7.72;3.15;;;;;;;7.12;100.00;99442.59;5050210;28;20087;-69
2024/01/05 05:36:57;;;;;;;7.57;2.13;;;;;;;7.16;100.00;99443.81;5050306;28;20049;-69
2024/01/05 05:39:24;;;;;;;10.88;1.83;;;;;;;7.19;100.00;99445.22;5049981;28;20037;-69
2024/01/05 05:41:49;;;;;;;7.45;1.90;;;;;;;7.21;100.00;99437.88;5049904;28;20028;-69
2024/01/05 05:44:15;;;;;;;7.22;2.22;;;;;;;7.16;100.00;99419.94;5049957;28;20037;-69
2024/01/05 05:46:40;;;;;;;4.60;1.55;;;;;;;7.23;100.00;99436.66;5049716;28;20049;-69
2024/01/05 05:49:06;;;;;;;4.95;1.83;;;;;;;7.25;100.00;99439.09;5049837;28;20081;-69
2024/01/05 05:51:32;;;;;;;6.55;2.08;;;;;;;7.26;100.00;99430.13;5049754;28;20017;-69
2024/01/05 05:53:57;;;;;;;8.73;1.63;;;;;;;7.25;100.00;99431.13;5049786;28;20170;-69
2024/01/05 05:56:23;;;;;;;3.97;2.55;;;;;;;7.27;100.00;99439.69;5049863;28;20120;-69
2024/01/05 05:58:49;;;;;;;6.43;1.50;;;;;;;7.29;100.00;99436.84;5049593;28;20036;-69
2024/01/05 06:01:16;;;;;;;7.40;1.52;;;;;;;7.28;100.00;99443.97;5049697;28;20029;-69
2024/01/05 06:03:42;;;;;;;9.25;2.22;;;;;;;7.28;100.00;99435.19;5049478;28;20396;-69
2024/01/05 06:06:21;;;;;;;4.15;1.30;;;;;;;7.29;100.00;99434.19;5049574;28;20025;-69
2024/01/05 06:08:47;;;;;;;3.22;1.30;;;;;;;7.28;100.00;99433.34;5049427;28;20481;-69
2024/01/05 06:11:16;;;;;;;5.53;1.77;;;;;;;7.32;100.00;99433.75;5031833;28;20025;-69
2024/01/05 06:13:41;;;;;;;8.32;2.05;;;;;;;7.34;100.00;99440.50;5049476;28;20029;-69
2024/01/05 06:16:07;;;;;;;4.82;0.98;;;;;;;7.36;100.00;99441.09;5049553;28;20111;-68
2024/01/05 06:18:32;;;;;;;4.45;1.48;;;;;;;7.34;100.00;99437.84;5049501;28;20031;-69
2024/01/05 06:20:59;;;;;;;3.90;1.48;;;;;;;7.39;100.00;99445.16;5049121;28;20025;-69
2024/01/05 06:23:25;;;;;;;3.15;1.20;;;;;;;7.37;100.00;99437.41;5049247;28;20020;-69
2024/01/05 06:25:50;;;;;;;3.65;1.52;;;;;;;7.43;100.00;99447.16;5048334;28;20051;-69
2024/01/05 06:28:15;;;;;;;5.32;0.88;;;;;;;7.42;100.00;99455.34;5049339;28;20029;-69
2024/01/05 06:30:41;;;;;;;2.78;0.85;;;;;;;7.38;100.00;99449.63;5049266;28;20388;-69
2024/01/05 06:33:07;;;;;;;0.73;0.70;;;;;;;7.38;100.00;99451.47;5049053;28;20411;-69
2024/01/05 06:35:32;;;;;;;3.83;0.70;;;;;;;7.38;100.00;99457.59;5049056;28;20060;-69
2024/01/05 06:37:58;;;;;;;1.83;0.55;;;;;;;7.40;100.00;99446.78;5048916;28;20115;-69
2024/01/05 06:40:23;;;;;;;0.45;0.40;;;;;;;7.43;100.00;99456.97;5047748;28;20021;-69
2024/01/05 06:42:49;;;;;;;2.72;0.52;;;;;;;7.44;100.00;99456.78;5048842;28;20044;-69
2024/01/05 06:45:14;;;;;;;0.63;0.63;;;;;;;7.40;100.00;99452.91;5048711;28;20029;-69
2024/01/05 06:47:40;;;;;;;1.90;0.90;;;;;;;7.40;100.00;99458.19;5048479;28;20465;-69
2024/01/05 06:50:06;;;;;;;0.65;0.60;;;;;;;7.40;100.00;99449.44;5048847;28;20048;-68
2024/01/05 06:52:31;;;;;;;0.45;0.45;;;;;;;7.42;100.00;99455.34;5049019;28;20032;-69
2024/01/05 06:54:56;;;;;;;0.60;0.50;;;;;;;7.42;100.00;99448.19;5048679;28;20107;-69
2024/01/05 06:57:22;;;;;;;0.93;0.45;;;;;;;7.42;100.00;99458.81;5048894;28;20146;-69
2024/01/05 06:59:47;;;;;;;1.83;0.85;;;;;;;7.43;100.00;99457.78;5048516;28;20065;-69
2024/01/05 07:02:12;;;;;;;1.77;0.52;;;;;;;7.45;100.00;99469.00;5048805;28;20028;-69
2024/01/05 07:04:40;;;;;;;0.93;0.50;;;;;;;7.47;100.00;99458.19;5048714;28;20025;-69
2024/01/05 07:07:05;;;;;;;1.85;0.60;;;;;;;7.49;100.00;99452.66;5048852;28;20043;-69
2024/01/05 07:09:30;;;;;;;0.77;0.50;;;;;;;7.51;100.00;99458.56;5048858;28;20033;-69
2024/01/05 07:11:56;;;;;;;0.70;0.70;;;;;;;7.50;100.00;99463.06;5048766;28;20063;-69
2024/01/05 07:14:21;;;;;;;0.70;0.50;;;;;;;7.41;100.00;99453.72;5047466;28;20037;-69
2024/01/05 07:16:48;;;;;;;0.60;0.50;;;;;;;7.44;100.00;99459.41;5048641;28;20032;-69
2024/01/05 07:19:13;;;;;;;0.90;0.63;;;;;;;7.37;100.00;99453.31;5048785;28;20117;-69
2024/01/05 07:21:43;;;;;;;0.25;0.25;;;;;;;7.36;100.00;99454.34;5048493;28;20033;-75
2024/01/05 07:24:10;;;;;;;1.75;0.75;;;;;;;7.36;100.00;99462.31;5048661;28;20116;-75
2024/01/05 07:26:35;;;;;;;0.47;0.40;;;;;;;7.40;100.00;99444.94;5048455;28;20033;-75
2024/01/05 07:29:01;;;;;;;0.93;0.50;;;;;;;7.42;100.00;99453.50;5048656;28;20103;-75
2024/01/05 07:31:27;;;;;;;1.38;1.25;;;;;;;7.38;100.00;99465.53;5048615;28;20044;-77
2024/01/05 07:33:53;;;;;;;1.10;0.57;;;;;;;7.37;100.00;99457.81;5048508;28;20025;-75
2024/01/05 07:36:18;;;;;;;1.67;0.90;;;;;;;7.29;100.00;99445.59;5049153;28;20044;-74
2024/01/05 07:38:44;;;;;;;0.88;0.55;;;;;;;7.33;100.00;99448.63;5051156;28;20032;-75
2024/01/05 07:41:17;;;;;;;1.33;0.52;;;;;;;7.27;100.00;99452.94;5051849;28;20052;-75
2024/01/05 07:43:43;;;;;;;2.15;1.52;;;;;;;7.33;100.00;99456.59;5051584;28;20032;-75
2024/01/05 07:46:09;;;;;;;3.92;0.93;;;;;;;7.29;100.00;99452.75;5051280;28;20033;-75
2024/01/05 07:48:34;;;;;;;3.10;1.38;;;;;;;7.31;100.00;99471.91;5051422;28;20044;-75
2024/01/05 07:51:03;;;;;;;8.93;2.25;;;;;;;7.28;100.00;99473.13;5051512;28;20438;-75
2024/01/05 07:53:28;;;;;;;2.20;0.70;;;;;;;7.29;100.00;99469.47;5051813;28;20044;-76
2024/01/05 07:55:54;;;;;;;1.63;0.70;;;;;;;7.27;100.00;99466.22;5051856;28;20029;-76
2024/01/05 07:58:19;;;;;;;2.20;0.80;;;;;;;7.25;100.00;99460.28;5052141;28;20033;-76
2024/01/05 08:00:45;;;;;;;1.75;0.57;;;;;;;7.23;100.00;99468.47;5051961;28;20456;-76
2024/01/05 08:03:11;;;;;;;2.30;0.80;;;;;;;7.21;100.00;99470.50;5051549;28;20082;-76
2024/01/05 08:05:37;;;;;;;1.48;0.88;;;;;;;7.17;100.00;99466.63;5051594;28;20036;-76
2024/01/05 08:08:03;;;;;;;3.85;1.33;;;;;;;7.12;100.00;99463.00;5051251;28;20143;-76
2024/01/05 08:10:30;;;;;;;1.10;0.88;;;;;;;7.08;100.00;99475.03;5050404;28;20110;-75
2024/01/05 08:12:55;;;;;;;3.72;0.65;;;;;;;7.01;100.00;99464.44;5051614;28;20492;-76
2024/01/05 08:15:21;;;;;;;0.40;0.40;;;;;;;6.98;100.00;99467.50;5051775;28;20040;-75
2024/01/05 08:17:46;;;;;;;0.95;0.75;;;;;;;6.92;100.00;99471.00;5051772;28;20575;-75
2024/01/05 08:20:12;;;;;;;2.15;0.60;;;;;;;6.83;100.00;99469.56;5051636;28;20033;-75
2024/01/05 08:22:37;;;;;;;5.43;1.60;;;;;;;6.74;100.00;99464.50;5051740;28;20433;-75
2024/01/05 08:25:03;;;;;;;1.23;0.75;;;;;;;6.73;100.00;99462.03;5051603;28;20037;-75
2024/01/05 08:27:29;;;;;;;0.63;0.63;;;;;;;6.68;100.00;99467.97;5051346;28;20170;-75
2024/01/05 08:29:55;;;;;;;2.08;0.60;;;;;;;6.70;100.00;99460.63;5051064;28;20111;-76
2024/01/05 08:32:20;;;;;;;1.90;1.35;;;;;;;6.68;100.00;99453.88;5047824;28;20032;-75
2024/01/05 08:34:46;;;;;;;3.83;2.05;;;;;;;6.68;100.00;99467.13;5048253;28;20040;-74
2024/01/05 08:37:11;;;;;;;1.58;0.65;;;;;;;6.66;100.00;99459.41;5049108;28;20036;-74
2024/01/05 08:39:39;;;;;;;1.05;0.70;;;;;;;6.67;100.00;99468.16;5049031;28;20036;-76
2024/01/05 08:42:08;;;;;;;0.60;0.60;;;;;;;6.65;100.00;99467.56;5048852;28;20114;-75
2024/01/05 08:44:35;;;;;;;0.60;0.60;;;;;;;6.62;100.00;99462.66;5049001;28;20127;-74
2024/01/05 08:47:00;;;;;;;0.50;0.50;;;;;;;6.62;100.00;99460.03;5049023;28;20049;-74
2024/01/05 08:49:26;;;;;;;2.15;1.05;;;;;;;6.59;100.00;99471.84;5048384;28;20449;-75
2024/01/05 08:51:52;;;;;;;2.15;0.70;;;;;;;6.59;100.00;99470.00;5049364;28;20053;-73
2024/01/05 08:54:17;;;;;;;0.45;0.40;;;;;;;6.52;100.00;99452.47;5049825;28;20025;-75
2024/01/05 08:56:42;;;;;;;0.98;0.50;;;;;;;6.57;100.00;99469.38;5049324;28;20064;-75
2024/01/05 08:59:08;;;;;;;1.58;0.70;;;;;;;6.59;100.00;99479.78;5030812;28;20029;-76
2024/01/05 09:01:33;;;;;;;4.03;0.68;;;;;;;6.50;100.00;99473.91;5048184;28;20156;-77
2024/01/05 09:03:59;;;;;;;2.10;0.73;;;;;;;6.47;100.00;99479.59;5049159;28;20047;-76
2024/01/05 09:06:24;;;;;;;0.47;0.47;;;;;;;6.41;100.00;99482.22;5048570;28;20039;-75
2024/01/05 09:08:50;;;;;;;1.35;0.60;;;;;;;6.33;100.00;99494.66;5048190;28;20079;-76
2024/01/05 09:11:16;;;;;;;1.35;0.40;;;;;;;6.23;100.00;99494.22;5047853;28;20017;-76
2024/01/05 09:13:41;;;;;;;1.80;0.50;;;;;;;6.14;100.00;99493.59;5048610;28;20063;-77
2024/01/05 09:16:06;;;;;;;0.35;0.35;;;;;;;6.07;100.00;99486.66;5048791;28;20078;-77
2024/01/05 09:18:35;;;;;;;0.47;0.47;;;;;;;6.03;100.00;99504.78;5048916;28;20033;-77
2024/01/05 09:21:02;;;;;;;0.50;0.50;;;;;;;5.96;100.00;99505.78;5049844;28;20029;-77
2024/01/05 09:23:27;;;;;;;1.73;0.40;;;;;;;5.87;100.00;99510.44;5050065;28;20036;-76
2024/01/05 09:25:53;;;;;;;0.70;0.50;;;;;;;5.77;100.00;99499.41;5049891;28;20033;-75
2024/01/05 09:28:18;;;;;;;0.82;0.82;;;;;;;5.75;100.00;99504.88;5047900;28;20102;-76
2024/01/05 09:30:43;;;;;;;0.60;0.60;;;;;;;5.74;100.00;99515.66;5049495;28;20112;-76
2024/01/05 09:33:09;;;;;;;4.15;0.75;;;;;;;5.66;100.00;99512.19;5050347;28;20086;-76
2024/01/05 09:35:34;;;;;;;0.50;0.50;;;;;;;5.62;100.00;99512.78;5049590;28;20057;-76
2024/01/05 09:38:00;;;;;;;1.63;0.55;;;;;;;5.49;100.00;99498.47;5048130;28;20108;-77
2024/01/05 09:40:26;;;;;;;1.30;0.75;;;;;;;5.46;100.00;99501.50;5049225;28;20052;-77
2024/01/05 09:42:51;;;;;;;2.65;0.65;;;;;;;5.49;100.00;99508.22;5050150;28;20554;-77
2024/01/05 09:45:21;;;;;;;0.60;0.60;;;;;;;5.52;100.00;99518.41;5050018;28;20040;-76
2024/01/05 09:47:47;;;;;;;0.68;0.65;;;;;;;5.48;100.00;99503.97;5049816;28;20056;-77
2024/01/05 09:50:16;;;;;;;0.50;0.50;;;;;;;5.55;100.00;99506.63;5049925;28;20030;-77
2024/01/05 09:52:42;;;;;;;0.50;0.50;;;;;;;5.61;100.00;99521.72;5049860;28;20082;-77
2024/01/05 09:55:08;;;;;;;0.60;0.60;;;;;;;5.63;100.00;99506.44;5049988;28;20025;-77
2024/01/05 09:57:34;;;;;;;0.60;0.60;;;;;;;5.66;100.00;99519.31;5049901;28;20029;-77
2024/01/05 10:00:03;;;;;;;0.70;0.70;;;;;;;5.62;100.00;99516.22;5049603;28;20041;-77
2024/01/05 10:02:36;;;;;;;1.20;0.80;;;;;;;5.73;100.00;99522.78;5048208;28;20032;-77
2024/01/05 10:05:01;;;;;;;1.55;1.00;;;;;;;5.69;100.00;99511.78;5049228;28;20033;-78
2024/01/05 10:07:27;;;;;;;1.75;0.75;;;;;;;5.76;100.00;99518.91;5049372;28;20502;-77
2024/01/05 10:09:54;;;;;;;1.00;0.90;;;;;;;5.82;100.00;99526.09;5049160;28;20040;-78
2024/01/05 10:12:20;;;;;;;1.92;0.95;;;;;;;5.88;100.00;99517.34;5049252;28;20071;-78
2024/01/05 10:14:47;;;;;;;2.05;1.20;;;;;;;5.95;100.00;99522.66;5049312;28;20056;-77
2024/01/05 10:17:13;;;;;;;1.60;0.80;;;;;;;5.97;100.00;99513.50;5049250;28;20063;-77
2024/01/05 10:19:42;;;;;;;0.98;0.80;;;;;;;6.00;100.00;99512.31;5049222;28;20033;-78
2024/01/05 10:22:16;;;;;;;2.80;1.05;;;;;;;6.07;100.00;99510.50;5049147;28;20100;-77
2024/01/05 10:24:42;;;;;;;1.77;1.30;;;;;;;6.07;100.00;99507.84;5049009;28;20586;-78
2024/01/05 10:27:12;;;;;;;1.17;0.90;;;;;;;6.08;100.00;99510.31;5048892;28;20037;-78
2024/01/05 10:29:42;;;;;;;1.70;1.30;;;;;;;6.14;100.00;99503.38;5049077;28;20068;-78
2024/01/05 10:32:15;;;;;;;1.17;1.13;;;;;;;6.25;100.00;99508.09;5049146;28;20025;-78
2024/01/05 10:34:49;;;;;;;1.58;1.35;;;;;;;6.36;100.00;99496.88;5047586;28;20065;-77
2024/01/05 10:37:16;;;;;;;1.70;1.08;;;;;;;6.46;100.00;99512.38;5048856;28;20035;-78
2024/01/05 10:39:52;;;;;;;4.00;1.80;;;;;;;6.57;100.00;99526.84;5048751;28;20037;-77
2024/01/05 10:42:22;;;;;;;1.73;1.15;;;;;;;6.57;100.00;99509.13;5048654;28;20032;-77
2024/01/05 10:44:51;;;;;;;2.85;1.05;;;;;;;6.66;100.00;99501.81;5048955;28;20025;-78
2024/01/05 10:47:17;;;;;;;12.52;4.47;;;;;;;6.71;100.00;99514.44;5048636;28;20091;-77
2024/01/05 10:49:50;;;;;;;2.08;1.38;;;;;;;6.73;100.00;99517.69;5048393;28;20131;-77
2024/01/05 10:52:17;;;;;;;3.13;1.63;;;;;;;6.66;100.00;99519.53;5048726;28;20025;-78
2024/01/05 10:54:45;;;;;;;1.00;0.90;;;;;;;6.57;100.00;99513.59;5048664;28;20114;-78
2024/01/05 10:57:12;;;;;;;3.03;1.00;;;;;;;6.48;100.00;99531.53;5048406;28;20032;-78
2024/01/05 10:59:37;;;;;;;0.90;0.82;;;;;;;6.49;100.00;99527.88;5049015;28;20075;-78
2024/01/05 11:02:13;;;;;;;1.20;1.10;;;;;;;6.50;100.00;99520.75;5048785;28;20514;-77
2024/01/05 11:04:41;;;;;;;7.05;0.95;;;;;;;6.42;100.00;99508.53;5048584;28;20467;-78
2024/01/05 11:07:07;;;;;;;1.33;1.02;;;;;;;6.41;100.00;99514.81;5048559;28;20033;-77
2024/01/05 11:09:51;;;;;;;1.15;1.10;;;;;;;6.40;100.00;99509.75;5048618;28;20495;-77
2024/01/05 11:12:36;;;;;;;3.42;1.20;;;;;;;6.52;100.00;99521.34;5050527;28;20574;-77
2024/01/05 11:15:01;;;;;;;1.33;1.05;;;;;;;6.50;100.00;99516.28;5052893;28;20548;-77
2024/01/05 11:17:29;;;;;;;1.23;0.83;;;;;;;6.51;100.00;99520.53;5052820;28;20124;-78
2024/01/05 11:20:08;;;;;;;1.80;1.20;;;;;;;6.49;100.00;99517.28;5052856;28;20341;-78
2024/01/05 11:22:36;;;;;;;1.50;1.20;;;;;;;6.51;100.00;99519.72;5052145;28;20053;-78
2024/01/05 11:25:03;;;;;;;1.38;1.10;;;;;;;6.48;100.00;99513.00;5052059;28;20063;-78
2024/01/05 11:27:35;;;;;;;3.22;1.40;;;;;;;6.49;100.00;99516.47;5050622;28;20561;-76